Time;durP1;ratioP1;P1;durP2;ratioP2;P2;SDS_P1;SDS_P2;PMS_P1;PMS_P2;Temp;Humidity;BMP_temperature;BMP_pressure;BME280_temperature;BME280_humidity;BME280_pressure;Samples;Min_cycle;Max_cycle;Signal;HPM_P1;HPM_P2
2023/03/19 00:01:06;;;;;;;22.92;17.25;;;10.20;99.90;;;;;;5089223;28;20378;-77
2023/03/19 00:03:33;;;;;;;26.35;19.02;;;10.20;99.90;;;;;;5126223;28;20051;-78
2023/03/19 00:05:59;;;;;;;23.13;17.92;;;10.10;99.90;;;;;;5088619;28;20411;-77
2023/03/19 00:08:25;;;;;;;24.73;19.20;;;10.10;99.90;;;;;;5091023;28;20047;-78
2023/03/19 00:10:51;;;;;;;23.83;17.90;;;10.10;99.90;;;;;;5106462;28;20050;-77
2023/03/19 00:13:17;;;;;;;25.63;18.13;;;10.10;99.90;;;;;;5108124;28;20057;-77
2023/03/19 00:15:42;;;;;;;21.33;17.33;;;10.20;99.90;;;;;;5107139;28;20047;-78
2023/03/19 00:18:09;;;;;;;24.75;18.95;;;10.20;99.90;;;;;;5074619;27;20035;-78
2023/03/19 00:20:35;;;;;;;24.65;18.20;;;9.20;99.90;;;;;;5111385;27;20035;-78
2023/03/19 00:23:01;;;;;;;23.90;18.27;;;10.10;99.90;;;;;;5108926;27;20122;-77
2023/03/19 00:25:26;;;;;;;22.73;17.73;;;10.20;99.90;;;;;;5111160;27;20135;-77
2023/03/19 00:27:53;;;;;;;20.45;17.52;;;10.10;99.90;;;;;;5109336;27;20042;-78
2023/03/19 00:30:21;;;;;;;23.00;17.10;;;10.10;99.90;;;;;;5094198;27;20402;-77
2023/03/19 00:32:47;;;;;;;21.73;18.27;;;10.10;99.90;;;;;;5110410;27;20051;-77
2023/03/19 00:35:13;;;;;;;21.02;17.30;;;10.20;99.90;;;;;;5092617;27;20054;-77
2023/03/19 00:37:39;;;;;;;24.17;17.23;;;10.00;99.90;;;;;;5111308;27;20049;-77
2023/03/19 00:40:06;;;;;;;22.17;17.50;;;10.00;99.90;;;;;;5108624;27;20049;-77
2023/03/19 00:42:32;;;;;;;24.42;17.52;;;9.90;99.90;;;;;;5129542;27;20130;-77
2023/03/19 00:44:58;;;;;;;21.30;16.60;;;9.90;99.90;;;;;;5109457;27;20122;-77
2023/03/19 00:47:24;;;;;;;22.25;17.30;;;10.40;99.90;;;;;;5110091;27;20043;-77
2023/03/19 00:49:50;;;;;;;22.23;16.40;;;9.90;99.90;;;;;;5110023;27;20565;-77
2023/03/19 00:52:15;;;;;;;23.67;16.77;;;9.80;99.90;;;;;;5109592;27;20130;-77
2023/03/19 00:54:41;;;;;;;24.25;17.40;;;9.90;99.90;;;;;;5129020;27;20047;-77
2023/03/19 00:57:07;;;;;;;22.55;17.55;;;9.90;99.90;;;;;;5108177;27;20085;-77
2023/03/19 00:59:33;;;;;;;21.02;15.88;;;9.90;99.90;;;;;;5128973;27;20054;-77
2023/03/19 01:01:59;;;;;;;23.83;18.13;;;10.00;99.90;;;;;;5127497;27;20033;-77
2023/03/19 01:04:24;;;;;;;22.70;16.88;;;10.10;99.90;;;;;;5128503;27;20035;-77
2023/03/19 01:06:50;;;;;;;18.65;16.02;;;10.00;99.90;;;;;;5109349;27;20040;-77
2023/03/19 01:09:16;;;;;;;21.42;16.35;;;10.10;99.90;;;;;;5109409;27;20043;-77
2023/03/19 01:11:42;;;;;;;24.85;17.10;;;10.10;99.90;;;;;;5110056;27;20047;-77
2023/03/19 01:14:08;;;;;;;24.52;16.60;;;10.20;99.90;;;;;;5108304;27;20043;-77
2023/03/19 01:16:34;;;;;;;24.25;16.25;;;10.50;99.90;;;;;;5110093;27;20498;-77
2023/03/19 01:19:01;;;;;;;24.00;17.27;;;10.20;99.90;;;;;;5126932;27;20409;-78
2023/03/19 01:21:29;;;;;;;23.85;17.10;;;10.20;99.90;;;;;;5109524;27;20188;-78
2023/03/19 01:23:56;;;;;;;20.65;16.27;;;10.30;99.90;;;;;;5127704;27;20043;-78
2023/03/19 01:26:22;;;;;;;19.85;15.77;;;10.30;99.90;;;;;;5109239;27;20069;-78
2023/03/19 01:28:48;;;;;;;21.08;15.48;;;10.40;99.90;;;;;;5109233;27;20058;-78
2023/03/19 01:31:14;;;;;;;21.00;16.65;;;10.40;99.90;;;;;;5091405;27;20047;-78
2023/03/19 01:33:40;;;;;;;23.58;16.13;;;10.40;99.90;;;;;;5092821;27;20085;-78
2023/03/19 01:36:07;;;;;;;26.58;17.02;;;10.30;99.90;;;;;;5108116;27;20082;-78
2023/03/19 01:38:33;;;;;;;18.73;15.20;;;10.40;99.90;;;;;;5075599;27;20077;-77
2023/03/19 01:40:59;;;;;;;18.83;14.32;;;10.50;99.90;;;;;;5091665;27;20039;-78
2023/03/19 01:43:30;;;;;;;21.58;15.38;;;10.30;99.90;;;;;;5091578;27;20121;-78
2023/03/19 01:46:13;;;;;;;19.40;15.10;;;10.40;99.90;;;;;;5109515;27;20057;-78
2023/03/19 01:48:44;;;;;;;20.80;14.38;;;10.40;99.90;;;;;;5107442;27;20563;-78
2023/03/19 01:51:14;;;;;;;16.92;13.55;;;10.40;99.90;;;;;;5109380;27;20043;-77
2023/03/19 01:53:44;;;;;;;17.35;14.15;;;10.40;99.90;;;;;;5107992;27;20078;-78
2023/03/19 01:56:20;;;;;;;21.25;14.23;;;10.40;99.90;;;;;;5091637;27;20080;-78
2023/03/19 01:58:49;;;;;;;19.83;14.40;;;10.40;99.90;;;;;;5109787;27;20051;-78
2023/03/19 02:01:15;;;;;;;16.27;12.65;;;10.40;99.90;;;;;;5090437;27;20603;-78
2023/03/19 02:03:41;;;;;;;20.17;14.00;;;10.40;99.90;;;;;;5109322;27;20036;-78
2023/03/19 02:06:09;;;;;;;16.30;12.55;;;10.40;99.90;;;;;;5107312;27;20073;-78
2023/03/19 02:08:37;;;;;;;24.73;12.40;;;10.40;99.90;;;;;;5092221;27;20603;-78
2023/03/19 02:11:04;;;;;;;18.55;11.60;;;10.50;99.90;;;;;;5091933;27;20119;-78
2023/03/19 02:13:30;;;;;;;17.52;11.20;;;10.50;99.90;;;;;;5074146;27;20104;-78
2023/03/19 02:15:56;;;;;;;14.63;10.45;;;10.50;99.90;;;;;;5092302;27;20043;-78
2023/03/19 02:18:23;;;;;;;13.63;9.05;;;10.50;99.90;;;;;;5107019;27;20044;-78
2023/03/19 02:21:06;;;;;;;10.00;8.50;;;10.50;99.90;;;;;;5109250;27;20099;-78
2023/03/19 02:23:54;;;;;;;13.52;8.73;;;10.50;99.90;;;;;;5108246;27;20394;-78
2023/03/19 02:26:23;;;;;;;11.80;8.25;;;10.60;99.90;;;;;;5126153;27;20047;-78
2023/03/19 02:28:50;;;;;;;12.18;9.13;;;10.50;99.90;;;;;;5109149;27;20067;-78
2023/03/19 02:31:17;;;;;;;14.35;9.00;;;10.60;99.90;;;;;;5125336;27;20042;-78
2023/03/19 02:33:44;;;;;;;13.60;9.25;;;10.50;99.90;;;;;;5092315;27;20136;-78
2023/03/19 02:36:15;;;;;;;16.73;9.70;;;10.50;99.90;;;;;;5107813;27;20047;-78
2023/03/19 02:38:43;;;;;;;14.73;9.88;;;10.50;99.90;;;;;;5108315;27;20045;-78
2023/03/19 02:41:09;;;;;;;14.55;9.93;;;10.50;99.90;;;;;;5107305;27;20072;-78
2023/03/19 02:43:38;;;;;;;16.42;10.52;;;10.50;99.90;;;;;;5090422;27;20050;-78
2023/03/19 02:46:07;;;;;;;12.32;9.63;;;10.50;99.90;;;;;;5091689;27;20042;-77
2023/03/19 02:48:33;;;;;;;11.57;8.95;;;10.40;99.90;;;;;;5107079;27;20390;-77
2023/03/19 02:51:00;;;;;;;21.60;9.43;;;10.40;99.90;;;;;;5108669;27;20364;-78
2023/03/19 02:53:26;;;;;;;14.55;10.25;;;10.40;99.90;;;;;;5107199;27;20031;-78
2023/03/19 02:55:51;;;;;;;16.10;9.90;;;10.40;99.90;;;;;;5108416;27;20410;-77
2023/03/19 02:58:17;;;;;;;12.63;9.35;;;10.40;99.90;;;;;;5107727;27;20035;-78
2023/03/19 03:00:44;;;;;;;14.07;8.98;;;10.40;99.90;;;;;;5106966;28;20043;-77
2023/03/19 03:03:10;;;;;;;11.48;8.90;;;10.40;99.90;;;;;;5108417;28;20521;-78
2023/03/19 03:05:36;;;;;;;13.05;9.52;;;10.40;99.90;;;;;;5124811;27;20092;-78
2023/03/19 03:08:03;;;;;;;12.85;8.80;;;10.40;99.90;;;;;;5108439;28;20039;-77
2023/03/19 03:10:29;;;;;;;13.40;9.13;;;10.40;99.90;;;;;;5107120;28;20068;-77
2023/03/19 03:12:55;;;;;;;13.07;8.80;;;10.50;99.90;;;;;;5107695;28;20592;-77
2023/03/19 03:15:21;;;;;;;12.82;8.95;;;10.40;99.90;;;;;;5086860;28;20047;-78
2023/03/19 03:17:47;;;;;;;13.57;9.10;;;10.40;99.90;;;;;;5104008;28;20426;-78
2023/03/19 03:20:14;;;;;;;11.90;7.72;;;10.40;99.90;;;;;;5104746;28;20475;-77
2023/03/19 03:22:40;;;;;;;12.40;7.88;;;10.40;99.90;;;;;;5103053;28;20048;-77
2023/03/19 03:25:07;;;;;;;10.18;7.65;;;10.40;99.90;;;;;;5104934;28;20056;-77
2023/03/19 03:27:33;;;;;;;12.68;7.75;;;10.30;99.90;;;;;;5069368;28;20040;-78
2023/03/19 03:29:59;;;;;;;10.95;7.25;;;10.40;99.90;;;;;;5104740;28;20047;-77
2023/03/19 03:32:25;;;;;;;9.20;7.28;;;10.40;99.90;;;;;;5087565;28;20047;-78
2023/03/19 03:34:51;;;;;;;8.80;7.10;;;10.40;99.90;;;;;;5087036;28;20518;-78
2023/03/19 03:37:17;;;;;;;15.25;6.90;;;10.40;99.90;;;;;;5105145;28;20057;-77
2023/03/19 03:39:42;;;;;;;9.73;6.45;;;10.30;99.90;;;;;;5102938;28;20391;-78
2023/03/19 03:42:08;;;;;;;8.60;6.40;;;10.20;99.90;;;;;;5087699;28;20048;-77
2023/03/19 03:44:35;;;;;;;10.07;6.40;;;10.40;99.90;;;;;;5068837;28;20039;-77
2023/03/19 03:47:01;;;;;;;6.90;5.57;;;10.50;99.90;;;;;;5103952;28;20047;-78
2023/03/19 03:49:27;;;;;;;7.85;5.53;;;10.30;99.90;;;;;;5086601;28;20127;-78
2023/03/19 03:51:52;;;;;;;6.63;5.07;;;10.30;99.90;;;;;;5087015;28;20122;-77
2023/03/19 03:54:18;;;;;;;12.48;5.88;;;10.30;99.90;;;;;;5108305;28;20047;-78
2023/03/19 03:56:44;;;;;;;8.25;5.43;;;10.30;99.90;;;;;;5089304;28;20039;-77
2023/03/19 03:59:09;;;;;;;8.77;5.50;;;10.40;99.90;;;;;;5108356;28;20047;-77
2023/03/19 04:01:35;;;;;;;8.75;5.55;;;10.40;99.90;;;;;;5072641;28;20123;-78
2023/03/19 04:04:01;;;;;;;9.35;5.47;;;10.40;99.90;;;;;;5107965;28;20059;-77
2023/03/19 04:06:28;;;;;;;9.75;5.18;;;10.40;99.90;;;;;;5073326;28;20646;-78
2023/03/19 04:08:53;;;;;;;8.35;5.10;;;10.40;99.90;;;;;;5107131;28;20074;-78
2023/03/19 04:11:19;;;;;;;11.60;5.20;;;10.40;99.90;;;;;;5107937;28;20382;-78
2023/03/19 04:13:45;;;;;;;8.13;5.18;;;10.40;99.90;;;;;;5089530;28;20101;-77
2023/03/19 04:16:11;;;;;;;10.40;4.97;;;9.80;99.90;;;;;;5090850;28;20056;-77
2023/03/19 04:18:37;;;;;;;10.10;4.95;;;10.40;99.90;;;;;;5071973;28;20039;-77
2023/03/19 04:21:05;;;;;;;6.60;4.97;;;10.40;99.90;;;;;;5107898;28;20055;-78
2023/03/19 04:23:31;;;;;;;8.30;5.20;;;10.40;99.90;;;;;;5089588;28;20031;-78
2023/03/19 04:26:01;;;;;;;6.55;5.32;;;10.40;99.90;;;;;;5106995;28;20482;-78
2023/03/19 04:28:27;;;;;;;7.35;5.03;;;10.40;99.90;;;;;;5090370;28;20052;-78
2023/03/19 04:31:01;;;;;;;6.70;5.45;;;10.40;99.90;;;;;;5088814;28;20633;-78
2023/03/19 04:33:28;;;;;;;5.38;4.53;;;10.40;99.90;;;;;;5107971;28;20048;-77
2023/03/19 04:35:54;;;;;;;8.88;4.95;;;10.40;99.90;;;;;;5106145;28;20043;-78
2023/03/19 04:38:21;;;;;;;7.15;4.72;;;10.40;99.90;;;;;;5107995;28;20432;-78
2023/03/19 04:40:47;;;;;;;6.38;5.22;;;10.40;99.90;;;;;;5089725;28;20048;-77
2023/03/19 04:43:13;;;;;;;8.85;4.95;;;10.40;99.90;;;;;;5106278;28;20100;-77
2023/03/19 04:45:39;;;;;;;5.90;4.88;;;10.40;99.90;;;;;;5107418;28;20043;-77
2023/03/19 04:48:05;;;;;;;8.48;4.55;;;10.40;99.90;;;;;;5089110;28;20051;-77
2023/03/19 04:50:31;;;;;;;7.13;5.10;;;11.40;99.90;;;;;;5107261;28;20515;-77
2023/03/19 04:52:57;;;;;;;6.00;4.18;;;10.40;99.90;;;;;;5105899;28;20089;-77
2023/03/19 04:55:23;;;;;;;8.13;5.07;;;10.40;99.90;;;;;;5089884;28;20410;-77
2023/03/19 04:57:48;;;;;;;6.30;4.55;;;10.40;99.90;;;;;;5106542;28;20097;-78
2023/03/19 05:00:15;;;;;;;10.20;5.30;;;10.40;99.90;;;;;;5106145;28;20040;-77
2023/03/19 05:02:41;;;;;;;6.70;5.15;;;10.30;99.90;;;;;;5089762;28;20047;-77
2023/03/19 05:05:08;;;;;;;6.95;5.20;;;10.40;99.90;;;;;;5087798;28;20051;-78
2023/03/19 05:07:35;;;;;;;8.15;5.20;;;10.40;99.90;;;;;;5090155;28;20052;-78
2023/03/19 05:10:01;;;;;;;10.15;5.63;;;10.40;99.90;;;;;;5104719;28;20090;-78
2023/03/19 05:12:27;;;;;;;6.50;5.45;;;10.40;99.90;;;;;;5089610;28;20088;-77
2023/03/19 05:14:52;;;;;;;7.25;5.60;;;10.40;99.90;;;;;;5088613;27;20398;-79
2023/03/19 05:17:18;;;;;;;7.80;5.95;;;10.40;99.90;;;;;;5092637;27;20043;-77
2023/03/19 05:19:44;;;;;;;9.25;5.60;;;10.30;99.90;;;;;;5109720;27;20043;-78
2023/03/19 05:22:09;;;;;;;6.75;5.18;;;10.30;99.90;;;;;;5091276;27;20048;-78
2023/03/19 05:24:35;;;;;;;8.77;5.80;;;10.30;99.90;;;;;;5092973;27;20118;-78
2023/03/19 05:27:01;;;;;;;8.45;5.85;;;10.30;99.90;;;;;;5090910;27;20039;-78
2023/03/19 05:29:27;;;;;;;8.77;6.05;;;10.30;99.90;;;;;;5093258;27;20043;-77
2023/03/19 05:31:53;;;;;;;8.95;7.03;;;10.30;99.90;;;;;;5074782;27;20087;-78
2023/03/19 05:34:19;;;;;;;10.18;6.72;;;10.30;99.90;;;;;;5075834;27;20047;-78
2023/03/19 05:36:45;;;;;;;10.63;6.60;;;10.30;99.90;;;;;;5127776;27;20054;-78
2023/03/19 05:39:11;;;;;;;8.82;6.20;;;10.20;99.90;;;;;;5108146;27;20047;-77
2023/03/19 05:41:36;;;;;;;10.88;6.07;;;10.20;99.90;;;;;;5110227;27;20047;-78
2023/03/19 05:44:02;;;;;;;10.30;6.65;;;10.10;99.90;;;;;;5107251;27;20047;-78
2023/03/19 05:46:28;;;;;;;7.57;5.70;;;10.10;99.90;;;;;;5109654;27;20448;-78
2023/03/19 05:48:54;;;;;;;10.95;7.47;;;10.10;99.90;;;;;;5107590;27;20050;-77
2023/03/19 05:51:19;;;;;;;10.90;6.68;;;10.00;99.90;;;;;;5075361;27;20047;-78
2023/03/19 05:53:45;;;;;;;8.63;6.47;;;10.00;99.90;;;;;;5108855;27;20063;-77
2023/03/19 05:56:11;;;;;;;8.02;5.90;;;10.00;99.90;;;;;;5107824;27;20509;-77
2023/03/19 05:58:37;;;;;;;8.27;5.80;;;9.80;99.90;;;;;;5109920;27;20051;-78
2023/03/19 06:01:03;;;;;;;9.82;6.32;;;9.80;99.90;;;;;;5106974;27;20486;-78
2023/03/19 06:03:29;;;;;;;8.73;6.63;;;9.70;99.90;;;;;;5092284;27;20078;-77
2023/03/19 06:05:56;;;;;;;11.27;6.40;;;9.70;99.90;;;;;;5107203;27;20050;-78
2023/03/19 06:08:22;;;;;;;7.32;5.80;;;9.60;99.90;;;;;;5108497;27;20047;-78
2023/03/19 06:10:48;;;;;;;6.30;4.90;;;9.60;99.90;;;;;;5108246;27;20039;-78
2023/03/19 06:13:14;;;;;;;10.90;5.82;;;9.60;99.90;;;;;;5090677;27;20147;-78
2023/03/19 06:15:39;;;;;;;6.88;6.07;;;9.50;99.90;;;;;;5091717;27;20047;-78
2023/03/19 06:18:06;;;;;;;8.38;6.22;;;9.50;99.90;;;;;;5089919;27;20062;-78
2023/03/19 06:20:31;;;;;;;8.05;5.10;;;9.50;99.90;;;;;;5109224;27;20035;-77
2023/03/19 06:22:57;;;;;;;8.75;5.82;;;9.50;99.90;;;;;;5090142;27;20031;-78
2023/03/19 06:25:23;;;;;;;6.72;5.50;;;9.50;99.90;;;;;;5108420;27;20039;-77
2023/03/19 06:27:48;;;;;;;7.97;5.85;;;9.50;99.90;;;;;;5107735;27;20496;-77
2023/03/19 06:30:14;;;;;;;7.50;5.57;;;9.40;99.90;;;;;;5107271;27;20043;-77
2023/03/19 06:32:41;;;;;;;11.23;6.90;;;9.50;99.90;;;;;;5108653;27;20505;-78
2023/03/19 06:35:07;;;;;;;9.02;6.32;;;9.60;99.90;;;;;;5090418;27;20069;-77
2023/03/19 06:37:33;;;;;;;11.10;5.95;;;9.50;99.90;;;;;;5092374;27;20450;-77
2023/03/19 06:39:59;;;;;;;9.70;6.97;;;9.60;99.90;;;;;;5106535;27;20082;-78
2023/03/19 06:42:24;;;;;;;11.35;6.97;;;9.70;99.90;;;;;;5108351;27;20043;-77
2023/03/19 06:44:50;;;;;;;9.68;7.32;;;10.00;99.90;;;;;;5107355;27;20047;-77
2023/03/19 06:47:16;;;;;;;10.02;7.30;;;9.80;99.90;;;;;;5090365;27;20078;-77
2023/03/19 06:49:42;;;;;;;8.95;7.15;;;9.80;99.90;;;;;;5108727;27;20092;-77
2023/03/19 06:52:07;;;;;;;11.02;6.22;;;9.90;99.90;;;;;;5089583;27;20043;-76
2023/03/19 06:54:33;;;;;;;8.80;6.38;;;9.80;99.90;;;;;;5074584;27;20086;-77
2023/03/19 06:56:59;;;;;;;7.65;5.82;;;9.80;99.90;;;;;;5106658;27;20043;-77
2023/03/19 06:59:25;;;;;;;8.93;6.65;;;11.20;99.90;;;;;;5107961;27;20494;-77
2023/03/19 07:01:51;;;;;;;7.65;6.40;;;9.80;99.90;;;;;;5089861;27;20167;-77
2023/03/19 07:04:17;;;;;;;8.82;5.88;;;9.90;99.90;;;;;;5107089;28;20058;-78
2023/03/19 07:06:43;;;;;;;11.75;5.35;;;9.90;99.90;;;;;;5108281;28;20492;-77
2023/03/19 07:09:09;;;;;;;9.48;5.90;;;9.90;99.90;;;;;;5106299;28;20150;-78
2023/03/19 07:11:35;;;;;;;9.48;5.50;;;10.00;99.90;;;;;;5108058;27;20050;-77
2023/03/19 07:14:01;;;;;;;8.85;6.28;;;10.10;99.90;;;;;;5089357;28;20328;-77
2023/03/19 07:16:27;;;;;;;11.70;6.68;;;10.10;99.90;;;;;;5107985;28;20537;-78
2023/03/19 07:18:52;;;;;;;10.43;6.03;;;10.20;99.90;;;;;;5089594;28;20110;-78
2023/03/19 07:21:18;;;;;;;7.82;5.72;;;10.30;99.90;;;;;;5073433;28;20047;-77
2023/03/19 07:23:45;;;;;;;7.85;6.35;;;10.20;99.90;;;;;;5090580;28;20409;-77
2023/03/19 07:26:12;;;;;;;11.30;6.97;;;10.30;99.90;;;;;;5106019;27;20051;-77
2023/03/19 07:28:38;;;;;;;7.65;6.35;;;10.30;99.90;;;;;;5078067;27;20047;-77
2023/03/19 07:31:04;;;;;;;9.25;6.35;;;10.40;99.90;;;;;;5109843;27;20043;-77
2023/03/19 07:33:30;;;;;;;12.73;7.10;;;10.40;99.90;;;;;;5112053;27;20046;-77
2023/03/19 07:35:56;;;;;;;10.98;7.60;;;10.40;99.90;;;;;;5093814;27;20050;-77
2023/03/19 07:38:21;;;;;;;9.43;7.28;;;10.50;99.90;;;;;;5094302;27;20085;-77
2023/03/19 07:40:48;;;;;;;9.93;7.35;;;10.50;99.90;;;;;;5111597;27;20082;-79
2023/03/19 07:43:14;;;;;;;10.07;6.78;;;10.60;99.90;;;;;;5110209;27;20062;-77
2023/03/19 07:45:40;;;;;;;9.55;7.50;;;10.60;99.90;;;;;;5111754;27;20043;-78
2023/03/19 07:48:05;;;;;;;10.35;7.40;;;10.60;99.90;;;;;;5109477;27;20126;-77
2023/03/19 07:50:31;;;;;;;10.55;7.75;;;10.70;99.90;;;;;;5130356;27;20448;-77
2023/03/19 07:52:57;;;;;;;10.45;7.38;;;10.80;99.90;;;;;;5110063;27;20039;-77
2023/03/19 07:55:23;;;;;;;8.73;7.63;;;10.90;99.90;;;;;;5110834;27;20445;-77
2023/03/19 07:57:49;;;;;;;10.07;7.55;;;10.90;99.90;;;;;;5111244;27;20126;-77
2023/03/19 08:00:15;;;;;;;13.57;9.23;;;11.00;99.90;;;;;;5093716;27;20138;-77
2023/03/19 08:02:41;;;;;;;11.85;8.02;;;11.00;99.90;;;;;;5094947;27;20312;-77
2023/03/19 08:05:08;;;;;;;10.40;8.45;;;11.10;99.90;;;;;;5109900;27;20332;-80
2023/03/19 08:07:34;;;;;;;12.10;8.90;;;11.20;99.90;;;;;;5094394;27;20035;-76
2023/03/19 08:10:01;;;;;;;15.73;8.73;;;11.30;99.90;;;;;;5109417;27;20050;-77
2023/03/19 08:12:26;;;;;;;10.73;8.23;;;11.30;99.90;;;;;;5093679;27;20086;-78
2023/03/19 08:14:52;;;;;;;11.35;8.68;;;11.30;99.90;;;;;;5093296;27;20074;-77
2023/03/19 08:17:18;;;;;;;13.63;9.50;;;11.40;99.90;;;;;;5109614;27;20055;-78
2023/03/19 08:19:44;;;;;;;16.77;10.05;;;11.40;99.90;;;;;;5111071;27;20035;-78
2023/03/19 08:22:10;;;;;;;13.82;9.88;;;11.40;99.90;;;;;;5091851;27;20058;-78
2023/03/19 08:24:36;;;;;;;14.63;10.18;;;11.40;99.90;;;;;;5094324;27;20047;-77
2023/03/19 08:27:02;;;;;;;14.57;11.40;;;11.40;99.90;;;;;;5091723;27;20494;-77
2023/03/19 08:29:28;;;;;;;15.65;11.30;;;11.40;99.90;;;;;;5093185;27;20051;-77
2023/03/19 08:31:55;;;;;;;16.95;11.23;;;10.30;99.90;;;;;;5128182;27;20046;-77
2023/03/19 08:34:21;;;;;;;15.25;10.57;;;11.30;99.90;;;;;;5109651;27;20047;-77
2023/03/19 08:36:47;;;;;;;16.50;11.55;;;11.40;99.90;;;;;;5110558;27;20131;-77
2023/03/19 08:39:13;;;;;;;16.05;12.15;;;11.60;99.90;;;;;;5090405;27;20051;-76
2023/03/19 08:41:39;;;;;;;15.55;12.98;;;11.60;99.90;;;;;;5110765;27;20454;-79
2023/03/19 08:44:05;;;;;;;17.83;12.23;;;11.70;99.90;;;;;;5108935;27;20133;-76
2023/03/19 08:46:32;;;;;;;15.45;11.63;;;11.70;99.90;;;;;;5129196;27;20043;-77
2023/03/19 08:48:58;;;;;;;16.92;12.48;;;11.80;99.90;;;;;;5128221;27;20046;-77
2023/03/19 08:51:25;;;;;;;15.68;11.02;;;11.80;99.90;;;;;;5109791;27;20047;-77
2023/03/19 08:53:52;;;;;;;15.10;11.30;;;11.80;99.90;;;;;;5128943;27;20054;-77
2023/03/19 08:56:18;;;;;;;16.23;12.00;;;11.80;99.90;;;;;;5108583;27;20043;-77
2023/03/19 08:58:44;;;;;;;14.10;10.95;;;11.90;99.90;;;;;;5110924;27;20062;-77
2023/03/19 09:01:12;;;;;;;14.18;10.57;;;12.00;99.90;;;;;;5091520;27;20051;-76
2023/03/19 09:03:39;;;;;;;13.88;10.07;;;12.00;99.90;;;;;;5092779;27;20095;-77
2023/03/19 09:06:07;;;;;;;12.50;10.07;;;12.00;99.90;;;;;;5127646;27;20043;-80
2023/03/19 09:08:33;;;;;;;12.80;9.90;;;12.10;99.90;;;;;;5108993;27;20519;-77
2023/03/19 09:10:59;;;;;;;14.23;10.30;;;12.10;99.90;;;;;;5110181;27;20047;-78
2023/03/19 09:13:25;;;;;;;12.88;10.05;;;12.10;99.90;;;;;;5108337;27;20043;-79
2023/03/19 09:15:51;;;;;;;12.88;9.40;;;12.20;99.90;;;;;;5109807;27;20134;-77
2023/03/19 09:18:19;;;;;;;12.13;10.07;;;12.20;99.90;;;;;;5091164;27;20172;-77
2023/03/19 09:20:45;;;;;;;13.05;9.80;;;12.30;99.90;;;;;;5109655;27;20047;-77
2023/03/19 09:23:11;;;;;;;14.30;9.57;;;12.40;99.90;;;;;;5109278;27;20428;-77
2023/03/19 09:25:37;;;;;;;12.98;8.95;;;12.50;99.90;;;;;;5109127;27;20035;-77
2023/03/19 09:28:03;;;;;;;10.68;9.00;;;12.60;99.90;;;;;;5109934;27;20444;-78
2023/03/19 09:30:29;;;;;;;12.13;9.77;;;12.60;99.90;;;;;;5108536;27;20047;-77
2023/03/19 09:32:55;;;;;;;11.27;8.65;;;12.60;99.90;;;;;;5075978;27;20071;-78
2023/03/19 09:35:21;;;;;;;10.57;8.65;;;12.50;99.90;;;;;;5090739;27;20505;-77
2023/03/19 09:37:47;;;;;;;10.63;8.77;;;12.50;99.90;;;;;;5127854;27;20039;-78
2023/03/19 09:40:23;;;;;;;9.65;8.10;;;12.50;99.90;;;;;;5107809;27;20053;-77
2023/03/19 09:43:17;;;;;;;14.73;9.65;;;12.50;99.90;;;;;;5108264;27;20460;-78
2023/03/19 09:45:46;;;;;;;11.20;8.98;;;12.50;99.90;;;;;;5109355;27;20043;-78
2023/03/19 09:48:27;;;;;;;13.23;9.73;;;12.50;99.90;;;;;;5073745;27;20051;-78
2023/03/19 09:50:54;;;;;;;13.60;9.27;;;12.50;99.90;;;;;;5091867;27;20035;-78
2023/03/19 09:53:27;;;;;;;12.13;8.70;;;12.50;99.90;;;;;;5108459;27;20513;-78
2023/03/19 09:55:53;;;;;;;12.02;10.20;;;12.60;99.90;;;;;;5108072;27;20081;-78
2023/03/19 09:58:33;;;;;;;14.77;9.35;;;12.60;99.90;;;;;;5128043;27;20170;-78
2023/03/19 10:01:00;;;;;;;10.75;8.60;;;12.70;99.90;;;;;;5107424;27;20047;-78
2023/03/19 10:03:36;;;;;;;12.60;9.50;;;12.80;99.90;;;;;;5127745;27;20051;-78
2023/03/19 10:06:23;;;;;;;10.85;8.57;;;12.90;99.90;;;;;;5091185;27;20087;-78
2023/03/19 10:09:20;;;;;;;9.85;8.07;;;13.00;99.90;;;;;;5090697;27;20387;-78
2023/03/19 10:11:58;;;;;;;11.70;9.13;;;13.10;99.90;;;;;;5092004;27;20057;-78
2023/03/19 10:14:36;;;;;;;12.10;8.45;;;13.00;99.90;;;;;;5126210;27;20047;-78
2023/03/19 10:17:04;;;;;;;12.55;9.32;;;13.00;99.90;;;;;;5107449;27;20090;-77
2023/03/19 10:20:02;;;;;;;10.18;8.05;;;13.00;99.90;;;;;;5127167;27;20410;-77
2023/03/19 10:22:34;;;;;;;13.18;9.77;;;13.00;99.90;;;;;;5089962;27;20073;-80
2023/03/19 10:25:01;;;;;;;12.20;9.70;;;13.00;99.90;;;;;;5091314;27;20054;-78
2023/03/19 10:27:28;;;;;;;14.43;9.50;;;13.00;99.90;;;;;;5107465;27;20470;-78
2023/03/19 10:29:54;;;;;;;18.10;9.00;;;13.00;99.90;;;;;;5107707;27;20118;-78
2023/03/19 10:32:28;;;;;;;11.32;7.88;;;13.00;99.90;;;;;;5127389;27;20049;-78
2023/03/19 10:34:59;;;;;;;12.55;8.43;;;13.00;99.90;;;;;;5089377;27;20494;-77
2023/03/19 10:37:29;;;;;;;10.25;8.45;;;13.00;99.90;;;;;;5091405;27;20051;-77
2023/03/19 10:39:56;;;;;;;8.80;7.45;;;13.00;99.90;;;;;;5106716;27;20050;-77
2023/03/19 10:43:17;;;;;;;11.45;7.47;;;13.00;99.90;;;;;;5107574;27;20043;-78
2023/03/19 10:45:43;;;;;;;10.90;8.40;;;13.00;99.90;;;;;;5026648;28;20084;-78
2023/03/19 10:48:14;;;;;;;13.23;9.05;;;13.00;99.90;;;;;;5085038;27;20086;-78
2023/03/19 10:50:55;;;;;;;9.65;8.05;;;13.10;99.90;;;;;;5126322;27;20047;-78
2023/03/19 10:53:32;;;;;;;13.27;9.60;;;13.10;99.90;;;;;;5107464;27;20662;-78
2023/03/19 10:56:21;;;;;;;9.57;7.88;;;13.10;99.90;;;;;;5107088;27;20043;-78
2023/03/19 10:59:03;;;;;;;11.15;7.70;;;13.20;99.90;;;;;;5108676;27;20082;-78
2023/03/19 11:01:39;;;;;;;11.85;8.50;;;13.20;99.90;;;;;;5106294;28;20047;-78
2023/03/19 11:04:15;;;;;;;11.98;8.13;;;13.20;99.90;;;;;;5125857;27;20378;-78
2023/03/19 11:06:41;;;;;;;10.55;8.32;;;13.20;99.90;;;;;;5126554;27;20394;-78
2023/03/19 11:09:06;;;;;;;11.98;8.10;;;13.30;99.90;;;;;;5088962;28;20043;-80
2023/03/19 11:11:41;;;;;;;12.55;8.82;;;13.30;99.90;;;;;;5108357;27;20043;-78
2023/03/19 11:14:19;;;;;;;11.25;8.52;;;13.30;99.90;;;;;;5106798;27;20056;-79
2023/03/19 11:17:03;;;;;;;11.32;8.50;;;13.30;99.90;;;;;;5103260;28;20059;-78
2023/03/19 11:19:31;;;;;;;10.48;8.23;;;13.30;99.90;;;;;;5087823;28;20398;-78
2023/03/19 11:22:12;;;;;;;13.68;9.82;;;13.20;99.90;;;;;;5102989;28;20054;-78
2023/03/19 11:24:40;;;;;;;18.48;8.88;;;13.20;99.90;;;;;;5104074;28;20059;-77
2023/03/19 11:27:10;;;;;;;10.23;8.43;;;13.00;99.90;;;;;;5104383;28;20495;-77
2023/03/19 11:29:44;;;;;;;11.63;9.27;;;12.90;99.90;;;;;;5103492;28;20092;-77
2023/03/19 11:32:42;;;;;;;10.70;8.85;;;12.80;99.90;;;;;;5104007;28;20052;-77
2023/03/19 11:35:16;;;;;;;11.85;9.55;;;12.90;99.90;;;;;;5102258;28;20039;-78
2023/03/19 11:38:02;;;;;;;13.07;9.93;;;12.90;99.90;;;;;;5103979;28;20088;-78
2023/03/19 11:40:51;;;;;;;12.13;9.70;;;13.00;99.90;;;;;;5103793;28;20127;-78
2023/03/19 11:43:44;;;;;;;16.08;9.50;;;12.90;99.90;;;;;;5102336;28;20118;-77
2023/03/19 11:46:23;;;;;;;13.82;10.95;;;12.90;99.90;;;;;;5103850;28;20414;-79
2023/03/19 11:49:24;;;;;;;17.55;10.23;;;12.90;99.90;;;;;;5103399;28;20127;-78
2023/03/19 11:51:59;;;;;;;12.15;10.18;;;13.00;99.90;;;;;;5081385;28;20051;-78
2023/03/19 11:54:34;;;;;;;12.95;10.10;;;13.00;99.90;;;;;;5105428;28;20045;-78
2023/03/19 11:57:10;;;;;;;11.38;9.18;;;13.00;99.90;;;;;;5102471;28;20040;-78
2023/03/19 12:00:02;;;;;;;13.95;10.45;;;13.10;99.90;;;;;;5103222;28;20053;-79
2023/03/19 12:03:09;;;;;;;12.63;9.57;;;13.20;99.90;;;;;;5104329;28;20090;-78
2023/03/19 12:05:47;;;;;;;15.50;10.88;;;13.20;99.90;;;;;;5102842;28;20258;-77
2023/03/19 12:08:48;;;;;;;12.80;9.85;;;13.20;99.90;;;;;;5103372;28;20048;-79
2023/03/19 12:11:29;;;;;;;15.98;10.38;;;13.10;99.90;;;;;;5087434;28;20051;-78
2023/03/19 12:14:24;;;;;;;12.50;9.38;;;13.10;99.90;;;;;;5103988;28;20139;-79
2023/03/19 12:17:03;;;;;;;15.80;10.57;;;13.00;99.90;;;;;;5089303;28;20051;-78
2023/03/19 12:19:54;;;;;;;12.77;9.77;;;12.90;99.90;;;;;;5090759;28;20047;-78
2023/03/19 12:22:44;;;;;;;12.70;9.80;;;12.90;99.90;;;;;;5106881;28;20085;-78
2023/03/19 12:25:42;;;;;;;15.20;10.88;;;13.00;99.90;;;;;;5108404;28;20059;-81
2023/03/19 12:28:40;;;;;;;14.50;11.23;;;13.00;99.90;;;;;;5105807;28;20059;-78
2023/03/19 12:31:14;;;;;;;15.38;10.93;;;13.10;99.90;;;;;;5105836;28;20052;-76
2023/03/19 12:34:15;;;;;;;15.48;9.93;;;13.10;99.90;;;;;;5106676;28;20185;-78
2023/03/19 12:37:14;;;;;;;14.85;11.13;;;13.20;99.90;;;;;;5107354;28;20081;-81
2023/03/19 12:40:12;;;;;;;15.50;11.73;;;13.20;99.90;;;;;;5061873;28;20047;-77
2023/03/19 12:42:40;;;;;;;15.23;10.50;;;13.10;99.90;;;;;;5089504;28;20050;-79
2023/03/19 12:45:33;;;;;;;18.33;11.60;;;13.00;99.90;;;;;;5106795;28;20097;-78
2023/03/19 12:48:09;;;;;;;17.67;12.02;;;13.00;99.90;;;;;;5088812;28;20051;-79
2023/03/19 12:50:38;;;;;;;21.13;13.10;;;12.60;99.90;;;;;;5089852;28;20471;-79